Time;durP1;ratioP1;P1;durP2;ratioP2;P2;SDS_P1;SDS_P2;PMS_P1;PMS_P2;Temp;Humidity;BMP_temperature;BMP_pressure;BME280_temperature;BME280_humidity;BME280_pressure;Samples;Min_cycle;Max_cycle;Signal;HPM_P1;HPM_P2
2021/05/06 00:10:40;;;;;;;8.95;4.60;;;3.90;99.90;;;;;;5052438;28;20052;-62
2021/05/06 00:32:18;;;;;;;5.38;2.80;;;4.00;99.90;;;;;;5059295;28;20086;-61
2021/05/06 00:34:44;;;;;;;5.55;2.78;;;4.10;99.90;;;;;;5051141;28;20028;-61
2021/05/06 00:37:13;;;;;;;7.22;3.08;;;4.20;99.90;;;;;;5057334;28;20039;-61
2021/05/06 00:39:44;;;;;;;5.43;2.17;;;4.30;99.90;;;;;;5061741;28;20089;-61
2021/05/06 00:55:56;;;;;;;8.25;2.20;;;4.20;99.90;;;;;;5060384;28;20036;-62
2021/05/06 01:06:24;;;;;;;5.03;2.65;;;3.90;99.90;;;;;;5034452;28;20413;-61
2021/05/06 01:09:04;;;;;;;5.47;2.05;;;3.80;99.90;;;;;;5043993;28;20025;-62
2021/05/06 01:14:04;;;;;;;4.47;2.60;;;3.70;99.90;;;;;;5040453;28;20128;-61
2021/05/06 01:16:30;;;;;;;4.53;2.17;;;3.70;99.90;;;;;;5043246;28;20052;-62
2021/05/06 01:18:55;;;;;;;4.80;2.42;;;3.70;99.90;;;;;;5041322;28;20056;-62
2021/05/06 01:21:21;;;;;;;3.70;2.30;;;3.80;99.90;;;;;;5042885;28;20439;-61
2021/05/06 01:23:47;;;;;;;6.38;2.53;;;3.80;99.90;;;;;;5049261;28;20047;-62
2021/05/06 01:26:19;;;;;;;5.72;2.72;;;3.70;99.90;;;;;;5051866;28;20025;-62
2021/05/06 01:28:50;;;;;;;4.07;2.30;;;3.70;99.90;;;;;;5053192;28;20390;-61
2021/05/06 01:31:19;;;;;;;7.97;2.38;;;3.70;99.90;;;;;;5044980;28;20099;-61
2021/05/06 01:34:21;;;;;;;4.90;2.42;;;3.70;99.90;;;;;;5042630;28;20403;-63
2021/05/06 01:36:48;;;;;;;4.63;2.28;;;3.60;99.90;;;;;;5057172;28;20040;-61
2021/05/06 01:44:14;;;;;;;6.70;3.13;;;3.60;99.90;;;;;;5044780;28;20055;-61
2021/05/06 01:57:46;;;;;;;6.40;2.55;;;3.30;99.90;;;;;;5057361;28;20032;-59
2021/05/06 02:00:20;;;;;;;6.60;2.75;;;3.30;99.90;;;;;;5047917;28;20137;-62
2021/05/06 02:02:47;;;;;;;4.80;2.40;;;3.20;99.90;;;;;;5047724;28;20040;-63
2021/05/06 02:05:14;;;;;;;4.50;2.42;;;3.10;99.90;;;;;;5052215;28;20028;-61
2021/05/06 02:07:42;;;;;;;3.53;2.50;;;3.10;99.90;;;;;;5050985;28;20040;-59
2021/05/06 02:10:10;;;;;;;4.88;2.95;;;3.10;99.90;;;;;;5054447;28;20032;-63
2021/05/06 02:12:37;;;;;;;6.85;2.97;;;3.00;99.90;;;;;;5054584;28;20111;-62
2021/05/06 02:15:50;;;;;;;5.35;2.58;;;3.00;99.90;;;;;;5037625;28;20094;-62
2021/05/06 02:17:54;;;;;;;7.75;2.90;;;3.00;99.90;;;;;;5044078;28;20040;-62
2021/05/06 02:20:20;;;;;;;4.45;2.97;;;3.00;99.90;;;;;;5061186;28;20020;-62
2021/05/06 02:22:47;;;;;;;9.00;3.08;;;2.90;99.90;;;;;;5047838;28;20034;-61
2021/05/06 02:25:13;;;;;;;5.47;2.35;;;2.90;99.90;;;;;;5045394;28;20647;-63
2021/05/06 02:27:39;;;;;;;4.57;2.45;;;2.90;99.90;;;;;;5056717;28;20032;-61
2021/05/06 02:30:05;;;;;;;4.13;2.47;;;2.90;99.90;;;;;;5061360;28;20031;-62
2021/05/06 02:32:31;;;;;;;3.80;2.53;;;2.90;99.90;;;;;;5049122;28;20399;-62
2021/05/06 02:34:57;;;;;;;6.38;2.55;;;3.00;99.90;;;;;;5046988;28;20025;-60
2021/05/06 02:37:24;;;;;;;5.28;2.55;;;3.00;99.90;;;;;;5048095;28;20725;-60
2021/05/06 02:39:49;;;;;;;6.10;2.10;;;2.90;99.90;;;;;;5059834;28;20452;-60
2021/05/06 02:42:15;;;;;;;9.23;2.80;;;2.90;99.90;;;;;;5054932;28;20036;-59
2021/05/06 02:44:41;;;;;;;3.13;2.13;;;2.90;99.90;;;;;;5059328;28;20028;-61
2021/05/06 02:47:07;;;;;;;5.25;2.78;;;3.00;99.90;;;;;;5054661;28;20033;-57
2021/05/06 02:49:34;;;;;;;3.65;2.45;;;3.10;99.90;;;;;;5042034;28;20033;-60
2021/05/06 02:52:06;;;;;;;3.53;2.58;;;3.20;99.90;;;;;;5050321;28;20026;-59
2021/05/06 02:54:36;;;;;;;7.13;2.33;;;3.30;99.90;;;;;;5053387;28;20025;-60
2021/05/06 03:04:47;;;;;;;6.03;2.50;;;3.60;99.90;;;;;;5055668;28;20031;-61
2021/05/06 03:07:16;;;;;;;6.00;1.83;;;3.70;99.90;;;;;;5053011;28;20028;-60
2021/05/06 03:23:01;;;;;;;4.28;2.10;;;3.90;99.90;;;;;;5053263;28;20086;-60
2021/05/06 03:25:29;;;;;;;3.70;1.73;;;4.00;99.90;;;;;;5046950;28;20029;-61
2021/05/06 04:21:45;;;;;;;3.67;1.73;;;4.50;99.90;;;;;;5057742;28;20135;-61
2021/05/06 04:27:36;;;;;;;10.55;2.10;;;4.60;99.90;;;;;;5049464;28;20124;-60
2021/05/06 04:37:51;;;;;;;5.95;1.85;;;4.70;99.90;;;;;;5060221;28;20513;-62
2021/05/06 04:56:10;;;;;;;6.97;2.15;;;5.00;99.90;;;;;;5059161;28;20085;-62
2021/05/06 04:58:56;;;;;;;4.05;1.60;;;5.00;99.90;;;;;;5046804;28;20076;-63
2021/05/06 05:06:56;;;;;;;4.05;1.67;;;5.10;99.90;;;;;;5046299;28;19909;-61
2021/05/06 05:25:04;;;;;;;6.07;2.03;;;5.70;99.90;;;;;;5055263;28;20040;-62
2021/05/06 05:27:31;;;;;;;6.78;3.10;;;5.70;99.90;;;;;;5062323;28;20040;-60
2021/05/06 05:29:57;;;;;;;5.80;1.98;;;5.80;99.90;;;;;;5058485;28;20028;-61
2021/05/06 05:32:22;;;;;;;4.82;1.52;;;5.80;99.90;;;;;;5055821;28;20398;-60
2021/05/06 05:34:59;;;;;;;6.07;1.55;;;5.80;99.90;;;;;;5047725;28;20022;-61
2021/05/06 05:37:30;;;;;;;5.75;2.08;;;5.80;99.90;;;;;;5053718;28;20039;-62
2021/05/06 05:45:18;;;;;;;5.32;1.90;;;5.90;99.90;;;;;;5053951;28;20033;-59
2021/05/06 05:55:46;;;;;;;11.68;2.13;;;6.10;99.90;;;;;;5053639;28;20043;-60
2021/05/06 05:58:12;;;;;;;8.07;2.40;;;6.20;99.90;;;;;;5045683;28;20083;-62
2021/05/06 06:00:37;;;;;;;6.95;2.00;;;6.20;99.90;;;;;;5043493;28;20033;-61
2021/05/06 06:03:03;;;;;;;15.32;4.22;;;6.20;99.90;;;;;;5050485;28;20064;-61
2021/05/06 06:05:29;;;;;;;8.75;2.63;;;6.20;99.90;;;;;;5050282;28;20033;-60
2021/05/06 06:07:54;;;;;;;10.80;5.82;;;6.20;99.90;;;;;;5050618;28;20025;-60
2021/05/06 06:10:20;;;;;;;23.20;14.43;;;6.20;99.90;;;;;;5061521;28;20123;-61
2021/05/06 06:12:45;;;;;;;12.85;7.50;;;6.20;99.90;;;;;;5046948;28;20498;-61
2021/05/06 06:15:33;;;;;;;33.58;24.70;;;6.40;99.90;;;;;;5057590;28;20029;-59
2021/05/06 06:18:09;;;;;;;14.93;8.55;;;6.40;99.90;;;;;;5058012;28;20113;-59
2021/05/06 06:20:37;;;;;;;15.30;10.98;;;6.40;99.90;;;;;;5050569;28;20101;-59
2021/05/06 06:23:02;;;;;;;11.63;5.45;;;6.40;99.90;;;;;;5056045;28;20033;-62
2021/05/06 06:25:28;;;;;;;5.75;2.95;;;6.50;99.90;;;;;;5048992;28;20416;-61
2021/05/06 06:27:53;;;;;;;5.43;2.05;;;6.50;99.90;;;;;;5050512;28;20490;-60
2021/05/06 06:30:19;;;;;;;9.65;2.75;;;6.50;99.90;;;;;;5050393;28;20029;-60
2021/05/06 06:32:45;;;;;;;6.30;1.90;;;6.60;99.90;;;;;;5065655;28;20067;-61
2021/05/06 06:35:11;;;;;;;9.77;3.05;;;6.50;99.90;;;;;;5054127;28;20029;-61
2021/05/06 06:37:36;;;;;;;12.13;3.45;;;6.50;99.90;;;;;;5064796;28;20032;-62
2021/05/06 06:40:02;;;;;;;7.43;3.10;;;6.60;99.90;;;;;;5050436;28;20091;-60
2021/05/06 06:42:27;;;;;;;12.80;2.80;;;6.60;99.90;;;;;;5036702;28;20132;-61
2021/05/06 06:44:53;;;;;;;9.80;2.85;;;6.70;99.90;;;;;;5050577;28;20120;-61
2021/05/06 06:47:19;;;;;;;5.07;1.67;;;6.80;99.90;;;;;;5058247;28;20445;-61
2021/05/06 06:49:44;;;;;;;5.93;2.47;;;6.90;99.90;;;;;;5055028;28;20022;-61
2021/05/06 06:52:11;;;;;;;9.57;2.83;;;7.10;99.90;;;;;;5061109;28;20052;-61
2021/05/06 06:54:37;;;;;;;10.57;2.70;;;7.30;99.90;;;;;;5051124;28;20029;-61
2021/05/06 06:57:05;;;;;;;4.10;2.40;;;7.60;99.90;;;;;;5052196;28;20040;-61
2021/05/06 06:59:31;;;;;;;4.72;2.22;;;8.30;99.90;;;;;;5053237;28;20140;-62
2021/05/06 07:01:56;;;;;;;3.67;2.00;;;9.70;99.90;;;;;;5064179;28;20025;-63
2021/05/06 07:04:22;;;;;;;8.20;2.05;;;10.90;99.90;;;;;;5055570;28;20824;-61
2021/05/06 07:06:48;;;;;;;7.55;2.45;;;11.40;99.90;;;;;;5053293;28;20025;-63
2021/05/06 07:09:14;;;;;;;3.90;2.25;;;11.60;98.90;;;;;;5049312;28;20048;-62
2021/05/06 07:11:40;;;;;;;5.03;2.35;;;11.70;98.80;;;;;;5052333;28;20025;-62
2021/05/06 07:14:06;;;;;;;5.32;2.67;;;11.90;99.90;;;;;;5039724;28;20380;-63
2021/05/06 07:16:32;;;;;;;5.22;2.78;;;11.50;97.90;;;;;;5049550;28;20060;-62
2021/05/06 07:18:58;;;;;;;5.15;2.65;;;11.10;99.50;;;;;;5049158;28;20033;-63
2021/05/06 07:24:01;;;;;;;5.10;2.85;;;10.80;99.50;;;;;;5008934;23;20064;-60
2021/05/06 07:26:27;;;;;;;8.73;2.90;;;10.50;99.40;;;;;;5029222;28;20029;-57
2021/05/06 07:28:53;;;;;;;5.28;2.72;;;10.00;99.90;;;;;;5028129;28;20022;-56
2021/05/06 07:31:20;;;;;;;6.53;3.00;;;10.10;99.90;;;;;;5022080;28;20035;-57
2021/05/06 07:33:48;;;;;;;5.40;2.33;;;10.00;99.90;;;;;;5030658;28;20025;-60
2021/05/06 07:36:18;;;;;;;7.40;3.88;;;10.50;99.90;;;;;;5031299;28;20021;-57
2021/05/06 07:38:45;;;;;;;5.03;3.22;;;11.60;99.90;;;;;;5029154;28;20076;-57
2021/05/06 07:41:12;;;;;;;8.32;2.90;;;12.00;96.50;;;;;;5030872;28;20022;-55
2021/05/06 07:43:39;;;;;;;4.80;2.58;;;11.90;96.70;;;;;;5030895;28;20040;-58
2021/05/06 07:46:05;;;;;;;4.82;2.08;;;11.80;97.20;;;;;;5013362;28;20028;-57
2021/05/06 07:48:31;;;;;;;4.18;2.65;;;11.90;97.80;;;;;;5030996;28;20116;-57
2021/05/06 07:50:58;;;;;;;7.55;2.40;;;12.00;98.00;;;;;;5013452;28;20188;-58
2021/05/06 07:53:26;;;;;;;5.35;2.97;;;12.20;96.80;;;;;;5029062;28;20037;-57
2021/05/06 07:55:55;;;;;;;4.82;2.15;;;12.00;95.50;;;;;;5029386;28;20478;-58
2021/05/06 07:58:21;;;;;;;5.53;2.38;;;12.10;93.90;;;;;;5030844;28;20179;-58
2021/05/06 08:00:47;;;;;;;4.78;1.75;;;11.80;95.00;;;;;;5014996;28;20022;-59
2021/05/06 08:03:13;;;;;;;5.63;2.28;;;11.90;94.60;;;;;;5030981;28;20027;-56
2021/05/06 08:05:39;;;;;;;5.15;1.75;;;12.00;94.50;;;;;;5030155;28;20510;-56
2021/05/06 08:08:05;;;;;;;4.20;2.35;;;11.10;95.90;;;;;;5021830;28;20046;-55
2021/05/06 08:10:31;;;;;;;6.32;3.35;;;10.80;97.20;;;;;;5030449;28;20047;-57
2021/05/06 08:12:58;;;;;;;6.70;3.17;;;10.60;96.80;;;;;;5011977;28;20478;-58
2021/05/06 08:15:25;;;;;;;6.85;3.50;;;11.40;96.20;;;;;;5030252;28;20116;-56
2021/05/06 08:17:51;;;;;;;4.20;1.75;;;12.60;94.70;;;;;;5030431;28;20059;-57
2021/05/06 08:20:18;;;;;;;5.68;1.88;;;12.60;92.80;;;;;;5030789;28;20108;-55
2021/05/06 08:22:44;;;;;;;5.97;1.70;;;12.20;93.10;;;;;;5029408;28;20022;-59
2021/05/06 08:25:12;;;;;;;4.40;1.73;;;11.90;93.60;;;;;;5030112;28;20495;-55
2021/05/06 08:27:39;;;;;;;7.68;3.15;;;11.10;94.50;;;;;;5030241;28;21754;-56
2021/05/06 08:30:15;;;;;;;5.03;2.22;;;10.80;96.80;;;;;;5030635;28;20037;-57
2021/05/06 08:32:41;;;;;;;3.97;2.35;;;10.50;97.30;;;;;;5029677;28;20040;-57
2021/05/06 08:35:08;;;;;;;5.68;1.60;;;10.70;98.10;;;;;;5029928;28;20033;-54
2021/05/06 08:37:34;;;;;;;5.47;3.00;;;10.70;96.70;;;;;;5029710;28;20028;-57
2021/05/06 08:40:01;;;;;;;9.27;5.57;;;10.80;96.70;;;;;;5030160;28;20222;-57
2021/05/06 08:42:27;;;;;;;12.00;7.45;;;11.30;95.70;;;;;;5029069;28;20040;-56
2021/05/06 08:44:53;;;;;;;3.58;2.38;;;11.50;94.80;;;;;;5026736;28;20489;-56
2021/05/06 08:47:21;;;;;;;4.60;2.75;;;11.80;95.10;;;;;;5029869;28;20037;-57
2021/05/06 08:49:47;;;;;;;6.72;2.95;;;13.60;89.90;;;;;;5030037;28;20147;-58
2021/05/06 08:52:19;;;;;;;6.78;3.40;;;15.00;80.00;;;;;;5028388;28;20372;-58
2021/05/06 08:54:49;;;;;;;4.90;3.22;;;15.70;74.10;;;;;;5011828;28;20057;-59
2021/05/06 08:57:17;;;;;;;8.40;4.50;;;14.90;72.80;;;;;;5009714;28;20034;-55
2021/05/06 08:59:43;;;;;;;7.90;4.85;;;13.90;75.50;;;;;;5029442;28;20029;-56
2021/05/06 09:02:11;;;;;;;15.45;9.15;;;13.10;81.20;;;;;;5029319;28;20024;-56
2021/05/06 09:04:37;;;;;;;4.22;1.73;;;12.50;84.80;;;;;;5013365;28;20018;-56
2021/05/06 09:07:04;;;;;;;6.13;3.38;;;12.80;87.20;;;;;;5029725;28;20033;-57
2021/05/06 09:09:33;;;;;;;4.47;2.78;;;13.40;79.70;;;;;;5014928;28;20029;-59
2021/05/06 09:12:04;;;;;;;2.42;1.50;;;13.70;78.40;;;;;;5019546;28;20061;-58
2021/05/06 09:14:49;;;;;;;4.13;1.40;;;13.60;76.50;;;;;;5028084;28;20392;-58
2021/05/06 09:17:27;;;;;;;4.60;1.90;;;13.00;78.30;;;;;;5024222;28;20052;-58
2021/05/06 09:20:13;;;;;;;5.32;2.15;;;13.40;81.00;;;;;;5027459;28;20034;-59
2021/05/06 09:22:42;;;;;;;4.05;1.92;;;14.30;78.20;;;;;;5028908;28;20030;-57
2021/05/06 09:25:32;;;;;;;2.63;1.25;;;14.50;72.90;;;;;;5029392;28;20269;-55
2021/05/06 09:28:07;;;;;;;3.20;1.90;;;14.20;72.30;;;;;;5028694;28;20022;-55
2021/05/06 09:30:48;;;;;;;4.50;1.90;;;14.50;72.80;;;;;;5028587;28;20132;-57
2021/05/06 09:33:15;;;;;;;3.15;1.65;;;15.80;70.50;;;;;;5029269;28;20056;-58
2021/05/06 09:35:46;;;;;;;5.50;2.40;;;16.40;65.30;;;;;;5027260;28;20517;-57
2021/05/06 09:38:42;;;;;;;5.22;1.90;;;16.40;63.20;;;;;;5004771;28;20141;-57
2021/05/06 09:41:08;;;;;;;5.95;2.42;;;16.40;59.60;;;;;;5029285;28;20694;-57
2021/05/06 09:43:39;;;;;;;12.38;7.32;;;15.90;59.40;;;;;;5031063;28;20031;-58
2021/05/06 09:46:32;;;;;;;2.92;1.58;;;16.20;57.90;;;;;;5029505;28;20045;-58
2021/05/06 09:49:02;;;;;;;2.88;1.60;;;17.50;55.70;;;;;;5026270;28;20034;-56
2021/05/06 09:51:42;;;;;;;5.30;1.50;;;17.20;54.30;;;;;;5027190;28;20037;-58
2021/05/06 09:54:22;;;;;;;9.20;2.15;;;16.50;55.70;;;;;;5028860;28;20032;-57
2021/05/06 09:56:55;;;;;;;3.53;2.60;;;16.80;56.60;;;;;;5029658;28;20385;-57
2021/05/06 09:59:24;;;;;;;16.70;9.97;;;17.00;55.30;;;;;;5020362;28;20053;-57
2021/05/06 10:01:49;;;;;;;5.07;2.90;;;17.40;54.10;;;;;;5026736;28;20295;-56
2021/05/06 10:04:23;;;;;;;6.40;2.33;;;17.00;51.40;;;;;;5022740;28;20502;-57
2021/05/06 10:07:23;;;;;;;5.72;1.70;;;16.70;52.70;;;;;;5025659;28;20075;-57
2021/05/06 10:10:07;;;;;;;4.65;1.52;;;17.00;55.40;;;;;;5026272;28;20570;-57
2021/05/06 10:12:33;;;;;;;;;;;17.90;52.60;;;;;;5017557;28;20045;-53
2021/05/06 10:15:00;;;;;;;2.53;1.20;;;17.40;50.10;;;;;;5028799;28;19999;-57
2021/05/06 10:17:27;;;;;;;7.03;2.72;;;16.50;52.70;;;;;;5033293;28;20469;-57
2021/05/06 10:19:54;;;;;;;3.95;1.55;;;16.20;52.30;;;;;;5028277;28;20082;-56
2021/05/06 10:22:22;;;;;;;2.75;1.63;;;16.50;53.70;;;;;;5028239;28;20021;-54
2021/05/06 10:24:49;;;;;;;2.78;1.33;;;16.30;55.90;;;;;;5028618;28;20033;-56
2021/05/06 10:27:20;;;;;;;4.07;1.80;;;16.00;54.60;;;;;;5022001;28;20108;-55
2021/05/06 10:29:46;;;;;;;3.97;1.95;;;15.40;54.50;;;;;;5028745;28;20032;-57
2021/05/06 10:32:14;;;;;;;3.95;2.03;;;15.60;56.30;;;;;;5018248;28;20478;-58
2021/05/06 10:34:41;;;;;;;5.13;1.70;;;16.10;55.50;;;;;;5027551;28;20048;-56
2021/05/06 10:37:07;;;;;;;6.03;1.70;;;16.20;55.50;;;;;;5026205;28;20057;-59
2021/05/06 10:39:43;;;;;;;4.45;2.15;;;16.10;54.30;;;;;;5027891;28;20116;-53
2021/05/06 10:42:27;;;;;;;2.85;1.65;;;16.30;55.10;;;;;;5024349;28;20057;-56
2021/05/06 10:45:13;;;;;;;4.05;1.40;;;15.90;53.50;;;;;;5028233;28;20087;-56
2021/05/06 10:47:38;;;;;;;6.57;2.33;;;16.10;54.10;;;;;;5023694;28;20025;-57
2021/05/06 10:50:11;;;;;;;3.25;1.48;;;16.30;52.70;;;;;;5032779;28;20040;-57
2021/05/06 10:52:42;;;;;;;5.78;2.00;;;15.30;50.90;;;;;;5032216;28;20017;-52
2021/05/06 10:55:10;;;;;;;4.57;1.92;;;14.50;54.40;;;;;;5032517;28;20029;-53
2021/05/06 10:57:36;;;;;;;3.03;1.13;;;14.40;55.30;;;;;;5031650;28;20056;-56
2021/05/06 11:00:20;;;;;;;2.17;1.30;;;14.20;56.30;;;;;;5032880;28;20451;-56
2021/05/06 11:02:49;;;;;;;3.15;1.30;;;14.20;55.80;;;;;;5028779;28;20030;-57
2021/05/06 11:05:19;;;;;;;5.90;1.33;;;13.90;54.50;;;;;;5032594;28;20021;-55
2021/05/06 11:08:17;;;;;;;2.55;1.33;;;14.10;56.70;;;;;;5028966;28;20029;-57
2021/05/06 11:10:43;;;;;;;5.53;1.33;;;14.80;56.60;;;;;;4985267;28;20044;-56
2021/05/06 11:13:08;;;;;;;2.40;1.40;;;15.00;57.30;;;;;;5030044;28;20037;-57
2021/05/06 11:15:36;;;;;;;7.75;2.35;;;14.70;55.20;;;;;;5031153;28;20479;-53
2021/05/06 11:18:04;;;;;;;6.15;3.75;;;15.00;56.40;;;;;;5029989;28;20053;-54
2021/05/06 11:20:29;;;;;;;2.85;1.20;;;14.70;54.20;;;;;;5036759;28;20033;-56
2021/05/06 11:22:58;;;;;;;4.22;1.65;;;14.10;55.80;;;;;;5031015;28;20017;-54
2021/05/06 11:25:27;;;;;;;8.90;3.42;;;13.90;56.50;;;;;;5031325;28;20071;-58
2021/05/06 11:27:57;;;;;;;10.25;3.50;;;13.90;55.50;;;;;;5030724;28;20029;-57
2021/05/06 11:30:37;;;;;;;7.50;3.10;;;13.80;56.90;;;;;;5024786;28;20033;-57
2021/05/06 11:33:21;;;;;;;10.80;3.40;;;13.90;57.40;;;;;;5031156;28;20056;-56
2021/05/06 11:35:59;;;;;;;7.22;2.10;;;14.00;56.30;;;;;;5030665;28;20386;-56
2021/05/06 11:38:34;;;;;;;7.68;4.13;;;14.40;55.20;;;;;;5030037;28;20029;-53
2021/05/06 11:41:00;;;;;;;6.38;3.75;;;14.40;55.70;;;;;;5032612;28;20483;-56
2021/05/06 11:43:26;;;;;;;6.70;4.13;;;14.70;57.70;;;;;;5030342;28;20040;-57
2021/05/06 11:46:09;;;;;;;4.57;2.00;;;14.70;53.40;;;;;;5030424;28;20037;-56
2021/05/06 11:48:38;;;;;;;5.30;2.05;;;14.60;53.60;;;;;;5031315;28;20428;-58
2021/05/06 11:51:05;;;;;;;3.38;2.03;;;14.90;53.40;;;;;;5029659;28;20546;-57
2021/05/06 11:53:30;;;;;;;3.15;1.77;;;15.20;54.90;;;;;;5025781;28;20045;-57
2021/05/06 11:55:56;;;;;;;5.47;1.58;;;15.20;54.00;;;;;;5030528;28;20025;-56
2021/05/06 11:58:28;;;;;;;5.70;1.33;;;15.40;53.80;;;;;;5030185;28;20398;-57
2021/05/06 12:00:55;;;;;;;4.63;2.53;;;15.20;52.70;;;;;;5030199;28;20498;-57
2021/05/06 12:03:34;;;;;;;3.47;1.60;;;15.30;53.30;;;;;;5032747;28;20052;-55
2021/05/06 12:06:00;;;;;;;5.22;1.42;;;15.50;51.60;;;;;;5027349;28;20057;-57
2021/05/06 12:08:47;;;;;;;2.08;1.70;;;15.60;52.80;;;;;;5029567;28;20030;-55
2021/05/06 12:11:13;;;;;;;2.25;1.75;;;15.50;52.60;;;;;;5031008;28;20033;-59
2021/05/06 12:13:50;;;;;;;3.25;1.30;;;15.80;51.00;;;;;;5030457;28;20025;-57
2021/05/06 12:16:24;;;;;;;4.07;1.52;;;16.00;52.40;;;;;;5014305;28;20050;-57
2021/05/06 12:18:54;;;;;;;;;;;16.30;51.80;;;;;;5030430;28;20029;-58
2021/05/06 12:21:20;;;;;;;2.97;1.63;;;15.90;50.70;;;;;;5025996;28;19966;-59
2021/05/06 12:23:48;;;;;;;7.38;2.47;;;15.90;52.40;;;;;;5028396;28;20029;-54
2021/05/06 12:26:17;;;;;;;6.65;2.35;;;16.20;50.40;;;;;;5027548;28;20022;-54
2021/05/06 12:28:43;;;;;;;3.75;1.60;;;15.60;50.80;;;;;;5030122;28;20159;-59
2021/05/06 12:31:09;;;;;;;4.25;1.50;;;15.70;52.00;;;;;;5027306;28;20121;-57
2021/05/06 12:33:35;;;;;;;5.88;1.70;;;16.20;50.10;;;;;;5025472;28;20052;-54
2021/05/06 12:36:01;;;;;;;2.15;1.63;;;16.30;51.10;;;;;;5025124;28;20057;-58
2021/05/06 12:38:27;;;;;;;4.75;1.55;;;16.40;50.00;;;;;;5003733;28;20021;-58
2021/05/06 12:40:53;;;;;;;4.20;2.20;;;16.00;50.50;;;;;;5028873;28;20036;-56
2021/05/06 12:43:23;;;;;;;6.57;2.88;;;16.20;52.20;;;;;;5029269;28;20374;-57
2021/05/06 12:46:09;;;;;;;9.05;4.63;;;15.80;50.00;;;;;;5022420;28;20074;-54
2021/05/06 12:48:41;;;;;;;7.40;3.10;;;15.40;50.20;;;;;;5024383;28;20029;-57
2021/05/06 12:51:08;;;;;;;4.55;2.45;;;15.30;49.70;;;;;;5029783;28;20030;-59
2021/05/06 12:53:34;;;;;;;4.78;1.90;;;15.30;50.70;;;;;;5027098;28;20503;-57
2021/05/06 12:56:00;;;;;;;3.83;1.58;;;15.20;50.70;;;;;;5014353;28;20064;-58
2021/05/06 12:58:28;;;;;;;4.93;1.33;;;15.60;49.30;;;;;;5028975;28;20057;-56
2021/05/06 13:00:57;;;;;;;4.72;1.75;;;15.70;52.60;;;;;;5027128;28;20128;-57
2021/05/06 13:03:30;;;;;;;4.85;1.80;;;16.00;52.30;;;;;;5029648;28;20026;-56
2021/05/06 13:06:02;;;;;;;;;;;15.90;48.40;;;;;;5011064;28;20414;-54
2021/05/06 13:08:45;;;;;;;4.07;1.80;;;16.10;47.00;;;;;;5025707;28;20000;-56
2021/05/06 13:11:19;;;;;;;5.65;1.63;;;16.00;48.20;;;;;;5028497;28;20030;-54
2021/05/06 13:13:52;;;;;;;3.88;1.80;;;15.90;49.50;;;;;;5028080;28;20037;-58
2021/05/06 13:16:44;;;;;;;4.18;1.50;;;15.60;50.90;;;;;;5028902;28;20031;-55
2021/05/06 13:19:20;;;;;;;2.85;1.77;;;15.40;50.60;;;;;;5028224;28;20033;-59
2021/05/06 13:21:47;;;;;;;4.30;1.45;;;15.70;50.50;;;;;;5029158;28;20399;-56
2021/05/06 13:24:13;;;;;;;5.97;2.03;;;15.80;50.80;;;;;;5028762;28;20068;-57
2021/05/06 13:26:41;;;;;;;1.98;1.20;;;15.60;49.70;;;;;;5025123;28;20062;-57
2021/05/06 13:29:16;;;;;;;4.90;1.90;;;15.30;49.90;;;;;;5028798;28;20398;-58
2021/05/06 13:31:51;;;;;;;6.85;2.05;;;15.30;51.80;;;;;;5028953;28;20032;-56
2021/05/06 13:34:27;;;;;;;3.63;1.60;;;15.20;50.90;;;;;;5027693;28;20120;-56
2021/05/06 13:37:04;;;;;;;5.70;1.58;;;15.50;52.50;;;;;;5028321;28;20032;-55
2021/05/06 13:39:31;;;;;;;9.48;2.33;;;15.00;52.60;;;;;;5028479;28;20033;-57
2021/05/06 13:41:57;;;;;;;2.75;1.63;;;15.20;51.70;;;;;;5028573;28;20025;-56
2021/05/06 13:44:25;;;;;;;4.90;1.80;;;14.90;50.70;;;;;;5028838;28;20033;-58
2021/05/06 13:46:54;;;;;;;4.05;1.70;;;14.60;52.30;;;;;;5028737;28;20416;-56
2021/05/06 13:49:25;;;;;;;2.30;1.42;;;14.50;51.40;;;;;;5026068;28;20526;-59
2021/05/06 13:51:51;;;;;;;2.55;1.58;;;14.40;53.20;;;;;;5026077;28;20061;-57
2021/05/06 13:54:18;;;;;;;5.53;1.98;;;14.30;52.30;;;;;;5027288;28;20387;-56
2021/05/06 13:56:44;;;;;;;3.80;1.30;;;14.30;53.70;;;;;;5027717;28;20013;-54
2021/05/06 13:59:10;;;;;;;7.82;2.28;;;14.50;54.20;;;;;;5028193;28;20497;-54
2021/05/06 14:01:35;;;;;;;2.78;1.42;;;14.60;53.40;;;;;;5025840;28;20033;-57
2021/05/06 14:04:01;;;;;;;5.15;1.40;;;14.40;54.10;;;;;;5028021;28;20035;-58
2021/05/06 14:06:27;;;;;;;6.00;1.35;;;14.40;53.20;;;;;;5025343;28;20041;-59
2021/05/06 14:08:53;;;;;;;5.45;1.58;;;13.90;55.10;;;;;;5027951;28;20053;-57
2021/05/06 14:11:18;;;;;;;2.00;1.20;;;13.90;53.60;;;;;;5028647;28;20430;-56
2021/05/06 14:13:44;;;;;;;6.68;1.75;;;14.10;52.90;;;;;;5010628;28;20029;-55
2021/05/06 14:16:10;;;;;;;6.00;2.13;;;14.20;53.10;;;;;;5026944;28;20378;-57
2021/05/06 14:18:35;;;;;;;7.30;1.15;;;14.00;54.50;;;;;;5027704;28;20116;-57
2021/05/06 14:21:07;;;;;;;5.00;1.38;;;14.10;55.30;;;;;;5027685;28;20107;-57
2021/05/06 14:23:39;;;;;;;2.95;2.05;;;14.30;56.00;;;;;;5027699;28;20032;-59
2021/05/06 14:26:05;;;;;;;4.32;1.35;;;14.20;56.20;;;;;;5029014;28;20399;-55
2021/05/06 14:28:31;;;;;;;7.93;1.38;;;14.00;56.50;;;;;;5032021;28;20044;-54
2021/05/06 14:30:57;;;;;;;5.35;2.15;;;14.00;56.70;;;;;;5030948;28;20021;-55
2021/05/06 14:33:22;;;;;;;4.57;1.88;;;13.80;57.50;;;;;;5031205;28;20491;-56
2021/05/06 14:35:48;;;;;;;8.13;3.33;;;13.70;58.10;;;;;;5031664;28;20028;-55
2021/05/06 14:38:13;;;;;;;2.80;1.67;;;13.60;58.10;;;;;;5028571;28;20029;-55
2021/05/06 14:40:40;;;;;;;4.00;1.63;;;13.30;59.60;;;;;;5029601;28;21028;-56
2021/05/06 14:43:09;;;;;;;4.32;1.27;;;13.50;60.60;;;;;;5031622;28;20847;-57
2021/05/06 14:45:35;;;;;;;4.30;1.60;;;13.40;60.80;;;;;;5030745;28;20030;-55
2021/05/06 14:48:02;;;;;;;4.28;1.35;;;13.20;61.20;;;;;;5014433;28;20029;-54
2021/05/06 14:50:29;;;;;;;4.57;2.33;;;13.30;63.00;;;;;;5029685;28;20521;-56
2021/05/06 14:52:55;;;;;;;4.00;1.42;;;13.00;61.90;;;;;;5029599;28;20021;-57
2021/05/06 14:55:22;;;;;;;2.70;1.55;;;12.90;63.00;;;;;;5030750;28;20021;-56
2021/05/06 14:57:48;;;;;;;4.45;1.30;;;12.60;62.80;;;;;;5029579;28;20111;-56
2021/05/06 15:00:15;;;;;;;6.68;1.63;;;12.30;68.00;;;;;;5022208;28;20668;-56
2021/05/06 15:02:42;;;;;;;7.65;5.07;;;12.30;72.70;;;;;;5031048;28;20388;-57
2021/05/06 15:05:08;;;;;;;3.47;1.83;;;12.10;72.70;;;;;;5030402;28;20510;-55
2021/05/06 15:07:33;;;;;;;2.95;2.40;;;12.20;71.80;;;;;;5029537;28;20112;-56
2021/05/06 15:09:59;;;;;;;7.68;2.50;;;12.20;72.30;;;;;;5027933;28;20152;-57
2021/05/06 15:12:24;;;;;;;5.45;1.90;;;12.00;75.90;;;;;;5029046;28;20034;-56
2021/05/06 15:14:50;;;;;;;5.35;2.40;;;12.00;80.80;;;;;;5031825;28;20517;-57
2021/05/06 15:17:16;;;;;;;5.50;2.00;;;12.00;84.10;;;;;;5030006;28;20041;-56
2021/05/06 15:19:41;;;;;;;6.53;2.78;;;11.90;80.80;;;;;;5030734;28;20036;-56
2021/05/06 15:22:07;;;;;;;7.75;4.95;;;12.00;84.10;;;;;;5031407;28;20030;-55
2021/05/06 15:24:33;;;;;;;11.05;2.90;;;11.90;91.40;;;;;;5031769;28;20033;-57
2021/05/06 15:26:58;;;;;;;5.78;1.90;;;11.80;87.70;;;;;;5030976;28;20061;-56
2021/05/06 15:29:24;;;;;;;11.52;2.40;;;11.60;93.90;;;;;;5013390;28;20207;-56
2021/05/06 15:31:50;;;;;;;3.97;2.05;;;11.70;95.90;;;;;;5029025;28;20448;-54
2021/05/06 15:34:16;;;;;;;4.47;1.65;;;11.60;97.00;;;;;;5030652;28;20025;-58
2021/05/06 15:36:42;;;;;;;6.05;1.60;;;11.50;96.90;;;;;;5029425;28;20055;-56
2021/05/06 15:39:08;;;;;;;4.05;1.60;;;11.50;97.30;;;;;;5031355;28;20019;-54
2021/05/06 15:41:34;;;;;;;4.03;1.85;;;11.30;99.90;;;;;;5031190;28;20033;-54
2021/05/06 15:44:00;;;;;;;6.15;1.95;;;11.20;99.90;;;;;;5025782;28;20028;-57
2021/05/06 15:46:26;;;;;;;4.97;2.33;;;11.00;99.90;;;;;;5030323;28;20038;-55
2021/05/06 15:48:51;;;;;;;5.70;1.75;;;10.90;99.90;;;;;;5026590;28;20421;-55
2021/05/06 15:51:17;;;;;;;4.43;2.38;;;10.70;99.20;;;;;;5031269;28;20037;-55
2021/05/06 15:53:43;;;;;;;5.45;2.30;;;10.70;99.90;;;;;;5030770;28;20037;-57
2021/05/06 15:56:10;;;;;;;4.35;2.13;;;10.60;99.90;;;;;;5026851;28;20546;-52
2021/05/06 15:58:37;;;;;;;6.32;2.63;;;10.60;99.90;;;;;;5029342;28;20055;-55
2021/05/06 16:01:03;;;;;;;14.70;4.15;;;10.50;99.90;;;;;;5028928;28;20025;-54
2021/05/06 16:03:32;;;;;;;10.50;6.65;;;10.40;99.90;;;;;;5029058;28;20025;-56
2021/05/06 16:05:58;;;;;;;12.82;6.93;;;10.40;99.90;;;;;;5030366;28;20021;-55
2021/05/06 16:08:24;;;;;;;13.70;5.85;;;10.40;99.90;;;;;;5026796;28;20053;-56
2021/05/06 16:10:54;;;;;;;6.82;2.60;;;10.40;99.90;;;;;;5025602;28;20036;-55
2021/05/06 16:13:20;;;;;;;3.05;1.67;;;10.50;99.90;;;;;;5012582;28;20017;-56
2021/05/06 16:15:48;;;;;;;6.25;2.30;;;10.30;99.90;;;;;;5030523;28;20087;-55
2021/05/06 16:18:15;;;;;;;5.15;2.28;;;10.20;99.90;;;;;;5025017;28;20014;-56
2021/05/06 16:20:41;;;;;;;7.80;2.20;;;10.20;99.90;;;;;;5031232;28;20030;-56
2021/05/06 16:23:09;;;;;;;7.13;2.72;;;10.00;99.90;;;;;;5030679;28;20061;-58
2021/05/06 16:25:35;;;;;;;7.47;2.67;;;9.90;99.90;;;;;;5027967;28;20049;-56
2021/05/06 16:28:02;;;;;;;6.47;2.70;;;9.80;99.90;;;;;;5030137;28;20070;-57